createdAt,value
2022-11-23T00:02:35.295Z,40.76
2022-11-23T00:10:26.448Z,40.74
2022-11-23T00:18:12.010Z,40.75
2022-11-23T00:26:06.007Z,40.74
2022-11-23T00:33:39.926Z,40.75
2022-11-23T00:41:24.550Z,40.83
2022-11-23T00:49:04.050Z,40.8
2022-11-23T00:56:45.537Z,40.84
2022-11-23T01:04:33.131Z,40.72
2022-11-23T01:12:22.264Z,40.29
2022-11-23T01:20:00.636Z,40.43
2022-11-23T01:27:42.028Z,40.35
2022-11-23T01:35:37.095Z,40.63
2022-11-23T01:43:29.951Z,40.7
2022-11-23T01:51:30.396Z,40.57
2022-11-23T01:59:36.653Z,40.68
2022-11-23T02:07:42.794Z,40.73
2022-11-23T02:15:32.196Z,40.67
2022-11-23T02:23:30.017Z,40.67
2022-11-23T02:31:32.426Z,40.64
2022-11-23T02:39:24.616Z,40.64
2022-11-23T02:47:25.468Z,40.63
2022-11-23T02:55:06.378Z,40.58
2022-11-23T03:02:48.931Z,40.7
2022-11-23T03:10:35.504Z,40.53
2022-11-23T03:18:18.597Z,40.19
2022-11-23T03:26:09.853Z,40.24
2022-11-23T03:33:46.328Z,40.16
2022-11-23T03:41:33.178Z,40.47
2022-11-23T03:49:10.381Z,40.53
2022-11-23T03:56:52.873Z,40.42
2022-11-23T04:04:40.616Z,40.62
2022-11-23T04:12:24.932Z,40.28
2022-11-23T04:20:04.623Z,40.63
2022-11-23T04:27:43.641Z,40.67
2022-11-23T04:35:26.405Z,40.65
2022-11-23T04:43:15.630Z,40.5
2022-11-23T04:51:02.360Z,40.2
2022-11-23T04:58:39.703Z,40.36
2022-11-23T05:06:22.102Z,40.38
2022-11-23T05:13:57.539Z,40.27
2022-11-23T05:21:28.818Z,39.41
2022-11-23T05:29:07.158Z,39.54
2022-11-23T05:36:43.133Z,39.88
2022-11-23T05:44:22.410Z,39.7
2022-11-23T05:52:10.665Z,39.99
2022-11-23T05:59:54.246Z,39.86
2022-11-23T06:07:35.219Z,39.98
2022-11-23T06:15:21.026Z,39.84
2022-11-23T06:23:11.121Z,39.93
2022-11-23T06:30:58.227Z,39.5
2022-11-23T06:38:40.931Z,37.99
2022-11-23T06:46:29.860Z,37.07
2022-11-23T06:54:09.730Z,37.09
2022-11-23T07:01:57.906Z,36.94
2022-11-23T07:09:44.889Z,37.17
2022-11-23T07:17:30.353Z,38.68
2022-11-23T07:25:17.986Z,39.19
2022-11-23T07:33:04.126Z,39.43
2022-11-23T07:40:49.591Z,39.76
2022-11-23T07:48:37.181Z,39.82
2022-11-23T07:56:15.594Z,39.76
2022-11-23T08:04:15.726Z,39.62
2022-11-23T08:11:57.241Z,39.51
2022-11-23T08:20:12.932Z,39.37
2022-11-23T08:28:01.230Z,39.2
2022-11-23T08:35:57.416Z,39.33
2022-11-23T08:43:53.214Z,39.25
2022-11-23T08:51:52.246Z,39.39
2022-11-23T08:59:46.425Z,39.5
2022-11-23T09:07:43.381Z,39.44
2022-11-23T09:15:34.467Z,39.41
2022-11-23T09:23:15.259Z,39.44
2022-11-23T09:31:13.397Z,39.55
2022-11-23T09:39:03.716Z,39.8
2022-11-23T09:47:13.248Z,40.06
2022-11-23T09:55:21.042Z,40.13
2022-11-23T10:03:15.613Z,40.23
2022-11-23T10:11:14.605Z,40.3
2022-11-23T10:19:37.281Z,40.31
2022-11-23T10:27:54.200Z,40.38
2022-11-23T10:36:06.017Z,40.45
2022-11-23T10:43:54.225Z,40.56
2022-11-23T10:51:53.919Z,40.61
2022-11-23T11:00:03.225Z,40.55
2022-11-23T11:08:09.230Z,40.47
2022-11-23T11:16:14.311Z,40.48
2022-11-23T11:24:28.802Z,40.5
2022-11-23T11:32:35.988Z,40.63
2022-11-23T11:40:59.717Z,40.62
2022-11-23T11:49:12.078Z,40.51
2022-11-23T11:57:22.216Z,40.55
2022-11-23T12:05:35.970Z,40.67
2022-11-23T12:14:01.105Z,40.62
2022-11-23T12:21:56.798Z,40.52
2022-11-23T12:30:03.653Z,40.76
2022-11-23T12:38:19.875Z,40.75
2022-11-23T12:46:13.367Z,40.58
2022-11-23T12:54:30.048Z,40.41
2022-11-23T13:02:49.405Z,40.17
2022-11-23T13:10:58.374Z,40.17
2022-11-23T13:19:11.362Z,39.87
2022-11-23T13:27:31.681Z,39.52
2022-11-23T13:35:36.471Z,39.39
2022-11-23T13:44:01.231Z,39.62
2022-11-23T13:51:54.481Z,39.48
2022-11-23T14:00:07.328Z,39.24
2022-11-23T14:08:08.007Z,39.62
2022-11-23T14:16:14.710Z,39.8
2022-11-23T14:24:15.938Z,39.91
2022-11-23T14:32:40.139Z,39.82
2022-11-23T14:40:44.269Z,39.73
2022-11-23T14:48:41.943Z,39.88
2022-11-23T14:56:33.157Z,39.93
2022-11-23T15:04:44.570Z,39.85
2022-11-23T15:12:53.921Z,40.11
2022-11-23T15:20:54.825Z,40.08
2022-11-23T15:29:06.208Z,40.14
2022-11-23T15:37:06.992Z,40.19
2022-11-23T15:45:11.596Z,40.33
2022-11-23T15:53:18.505Z,40.2
2022-11-23T16:01:18.525Z,40.37
2022-11-23T16:09:52.564Z,40.51
2022-11-23T16:17:41.224Z,40.5
2022-11-23T16:25:48.099Z,40.45
2022-11-23T16:33:50.239Z,40.5
2022-11-23T16:41:14.557Z,40.52
2022-11-23T16:49:05.438Z,40.44
2022-11-23T16:56:55.036Z,40.43
2022-11-23T17:04:54.699Z,40.18
2022-11-23T17:12:29.090Z,40.04
2022-11-23T17:20:19.556Z,40.25
2022-11-23T17:28:10.837Z,40.39
2022-11-23T17:36:02.441Z,40.38
2022-11-23T17:43:42.494Z,40.38
2022-11-23T17:51:29.269Z,40.54
2022-11-23T17:58:54.143Z,40.49
2022-11-23T18:06:35.825Z,40.5
2022-11-23T18:14:15.423Z,40.39
2022-11-23T18:21:59.521Z,40.59
2022-11-23T18:29:29.420Z,40.55
2022-11-23T18:37:12.239Z,40.52
2022-11-23T18:45:00.684Z,40.45
2022-11-23T18:52:48.939Z,40.48
2022-11-23T19:00:32.531Z,40.53
2022-11-23T19:08:15.824Z,40.43
2022-11-23T19:15:47.003Z,40.49
2022-11-23T19:23:30.251Z,40.68
2022-11-23T19:31:22.705Z,40.66
2022-11-23T19:39:01.063Z,40.62
2022-11-23T19:46:44.737Z,40.71
2022-11-23T19:54:33.526Z,40.87
2022-11-23T20:02:22.555Z,40.83
2022-11-23T20:10:07.833Z,40.76
2022-11-23T20:17:34.614Z,40.83
2022-11-23T20:25:21.778Z,40.72
2022-11-23T20:33:02.771Z,40.91
2022-11-23T20:40:45.333Z,40.63
2022-11-23T20:48:26.636Z,40.71
2022-11-23T20:56:04.341Z,40.7
2022-11-23T21:03:51.513Z,40.86
2022-11-23T21:11:36.514Z,40.99
2022-11-23T21:19:27.679Z,40.85
2022-11-23T21:27:06.986Z,40.81
2022-11-23T21:34:48.711Z,40.82
2022-11-23T21:42:27.580Z,40.76
2022-11-23T21:50:05.446Z,40.82
2022-11-23T21:57:53.586Z,40.88
2022-11-23T22:05:45.149Z,40.74
2022-11-23T22:13:38.690Z,40.74
2022-11-23T22:21:31.555Z,40.81
2022-11-23T22:29:05.844Z,40.71
2022-11-23T22:36:46.893Z,40.72
2022-11-23T22:44:35.771Z,40.78
2022-11-23T22:52:26.448Z,40.82
2022-11-23T23:00:03.929Z,40.67
2022-11-23T23:07:51.047Z,40.75
2022-11-23T23:15:35.146Z,40.83
2022-11-23T23:23:18.525Z,40.77
2022-11-23T23:30:58.725Z,40.72
2022-11-23T23:38:35.660Z,40.77
2022-11-23T23:46:15.039Z,40.74
2022-11-23T23:53:49.366Z,40.64
